Time;durP1;ratioP1;P1;durP2;ratioP2;P2;SDS_P1;SDS_P2;PMS_P1;PMS_P2;Temp;Humidity;BMP_temperature;BMP_pressure;BME280_temperature;BME280_humidity;BME280_pressure;Samples;Min_cycle;Max_cycle;Signal;HPM_P1;HPM_P2
2021/10/29 00:00:07;;;;;;;24.45;13.55;;;9.50;88.60;;;;;;4955399;28;20074;-70
2021/10/29 00:02:33;;;;;;;21.73;11.90;;;9.50;89.00;;;;;;4942291;28;20922;-71
2021/10/29 00:04:59;;;;;;;23.42;12.90;;;9.50;88.60;;;;;;4946305;28;20039;-70
2021/10/29 00:07:25;;;;;;;21.67;12.30;;;9.50;88.90;;;;;;4950878;28;20759;-70
2021/10/29 00:09:51;;;;;;;22.73;12.18;;;9.50;89.00;;;;;;4957417;28;20045;-70
2021/10/29 00:12:22;;;;;;;20.42;12.93;;;9.50;89.00;;;;;;4970534;28;20035;-70
2021/10/29 00:14:48;;;;;;;25.58;12.32;;;9.40;89.60;;;;;;4951580;28;20035;-70
2021/10/29 00:17:14;;;;;;;21.73;13.05;;;9.40;89.30;;;;;;4959967;28;20058;-69
2021/10/29 00:19:39;;;;;;;19.23;12.10;;;9.40;89.60;;;;;;4940821;28;20486;-70
2021/10/29 00:22:05;;;;;;;19.92;12.52;;;9.40;89.60;;;;;;4944419;28;20031;-71
2021/10/29 00:24:32;;;;;;;21.27;12.75;;;9.40;89.50;;;;;;4948300;28;20127;-70
2021/10/29 00:26:57;;;;;;;19.40;12.30;;;9.40;89.50;;;;;;4953428;28;20043;-71
2021/10/29 00:29:23;;;;;;;20.27;11.68;;;9.40;89.60;;;;;;4957296;28;20038;-71
2021/10/29 00:31:50;;;;;;;20.52;12.02;;;9.30;89.80;;;;;;4952781;28;20042;-71
2021/10/29 00:34:16;;;;;;;19.60;11.85;;;9.20;90.30;;;;;;4950139;28;20137;-70
2021/10/29 00:36:41;;;;;;;18.98;11.90;;;9.20;90.30;;;;;;4945460;28;20039;-70
2021/10/29 00:39:07;;;;;;;23.60;13.18;;;9.20;90.10;;;;;;4972675;28;20113;-71
2021/10/29 00:41:35;;;;;;;20.85;11.90;;;9.20;90.10;;;;;;4954511;28;20035;-70
2021/10/29 00:44:01;;;;;;;18.63;11.38;;;9.10;90.40;;;;;;4950268;28;20026;-71
2021/10/29 00:46:27;;;;;;;19.98;12.30;;;9.10;90.40;;;;;;4945554;28;20039;-70
2021/10/29 00:48:53;;;;;;;20.60;12.18;;;9.10;90.30;;;;;;4970929;28;20039;-71
2021/10/29 00:51:19;;;;;;;19.02;12.05;;;9.10;90.50;;;;;;4954967;28;20055;-70
2021/10/29 00:53:46;;;;;;;20.23;12.57;;;9.10;90.50;;;;;;4958194;28;20031;-71
2021/10/29 00:56:12;;;;;;;17.27;11.30;;;9.10;90.50;;;;;;4962705;28;20043;-70
2021/10/29 00:58:38;;;;;;;22.73;12.63;;;9.00;90.30;;;;;;4951194;28;20035;-71
2021/10/29 01:01:04;;;;;;;24.70;12.95;;;9.00;90.40;;;;;;4967048;28;20754;-71
2021/10/29 01:03:31;;;;;;;18.25;11.48;;;9.00;90.40;;;;;;4965538;28;20042;-70
2021/10/29 01:05:57;;;;;;;21.05;12.40;;;9.00;90.40;;;;;;4973511;28;20086;-71
2021/10/29 01:08:23;;;;;;;21.17;12.75;;;9.00;90.60;;;;;;4972394;28;20078;-71
2021/10/29 01:10:50;;;;;;;21.98;11.85;;;9.00;90.60;;;;;;4952409;28;20089;-70
2021/10/29 01:13:16;;;;;;;19.20;12.27;;;8.90;90.60;;;;;;4947168;28;20050;-71
2021/10/29 01:15:43;;;;;;;19.70;12.32;;;8.90;90.60;;;;;;4972569;28;20032;-68
2021/10/29 01:18:09;;;;;;;19.55;12.00;;;8.90;90.60;;;;;;4952748;28;20035;-68
2021/10/29 01:20:35;;;;;;;21.23;11.25;;;8.90;90.50;;;;;;4957384;28;20041;-68
2021/10/29 01:23:01;;;;;;;21.80;11.95;;;8.90;90.70;;;;;;4975367;28;20030;-68
2021/10/29 01:25:27;;;;;;;20.08;12.50;;;8.90;90.60;;;;;;4959789;28;20517;-68
2021/10/29 01:27:53;;;;;;;22.77;12.57;;;8.90;90.80;;;;;;4954084;28;20113;-68
2021/10/29 01:30:18;;;;;;;25.13;11.18;;;8.90;90.70;;;;;;4948867;28;20047;-68
2021/10/29 01:32:44;;;;;;;18.90;11.43;;;8.80;90.90;;;;;;4958684;28;20039;-68
2021/10/29 01:35:31;;;;;;;20.35;11.32;;;8.80;90.80;;;;;;4947007;28;20066;-68
2021/10/29 01:37:57;;;;;;;;;;;8.80;90.90;;;;;;4952111;28;20031;-68
2021/10/29 01:40:23;;;;;;;20.33;12.03;;;8.70;90.90;;;;;;4957590;28;20500;-68
2021/10/29 01:42:48;;;;;;;20.35;12.52;;;8.70;91.10;;;;;;4959754;28;20031;-68
2021/10/29 01:45:15;;;;;;;22.92;12.68;;;8.60;91.10;;;;;;4954744;28;20090;-68
2021/10/29 01:47:41;;;;;;;19.02;11.63;;;8.60;91.20;;;;;;4949507;28;20555;-68
2021/10/29 01:50:08;;;;;;;21.92;12.88;;;8.60;91.30;;;;;;4944866;28;20075;-68
2021/10/29 01:52:34;;;;;;;22.48;12.68;;;8.60;91.40;;;;;;4943801;28;20492;-68
2021/10/29 01:55:00;;;;;;;23.45;12.77;;;8.60;91.40;;;;;;4954150;28;20035;-68
2021/10/29 01:57:26;;;;;;;18.73;11.63;;;8.60;91.40;;;;;;4954598;28;20039;-68
2021/10/29 01:59:52;;;;;;;21.50;12.00;;;8.50;91.30;;;;;;4959428;28;20046;-68
2021/10/29 02:02:18;;;;;;;18.95;12.05;;;8.50;91.20;;;;;;4972127;28;20031;-68
2021/10/29 02:04:44;;;;;;;22.23;13.38;;;8.40;91.10;;;;;;4958051;28;20041;-68
2021/10/29 02:07:10;;;;;;;23.00;13.40;;;8.30;91.50;;;;;;4947279;28;20045;-68
2021/10/29 02:09:36;;;;;;;21.35;12.07;;;8.30;91.70;;;;;;4943363;28;20027;-68
2021/10/29 02:12:02;;;;;;;22.60;12.45;;;8.30;91.70;;;;;;4946698;28;20038;-68
2021/10/29 02:14:28;;;;;;;22.17;13.10;;;8.30;91.60;;;;;;4951084;28;20126;-68
2021/10/29 02:16:53;;;;;;;26.58;13.80;;;8.20;91.60;;;;;;4956710;28;20039;-68
2021/10/29 02:19:19;;;;;;;20.88;12.82;;;8.20;91.80;;;;;;4959510;28;20046;-68
2021/10/29 02:21:45;;;;;;;21.65;12.13;;;8.10;91.90;;;;;;4955599;28;20039;-68
2021/10/29 02:24:10;;;;;;;22.52;12.25;;;8.10;91.90;;;;;;4968130;28;20031;-68
2021/10/29 02:26:36;;;;;;;22.10;11.90;;;8.10;91.90;;;;;;4958382;28;20142;-68
2021/10/29 02:29:03;;;;;;;24.48;13.73;;;8.00;92.30;;;;;;4958421;28;20100;-68
2021/10/29 02:31:30;;;;;;;23.45;13.88;;;8.00;92.60;;;;;;4952879;28;20129;-68
2021/10/29 02:33:56;;;;;;;22.20;12.85;;;8.00;92.50;;;;;;4949218;28;20055;-68
2021/10/29 02:36:22;;;;;;;22.25;13.00;;;7.90;92.40;;;;;;4943580;28;20082;-68
2021/10/29 02:38:48;;;;;;;20.10;12.23;;;7.90;92.50;;;;;;4958821;28;20786;-68
2021/10/29 02:41:14;;;;;;;21.58;12.68;;;7.90;92.60;;;;;;4949274;28;20043;-68
2021/10/29 02:43:46;;;;;;;24.45;14.02;;;7.90;92.70;;;;;;4963363;28;20106;-68
2021/10/29 02:46:12;;;;;;;23.13;13.52;;;7.90;92.80;;;;;;4942850;28;20483;-68
2021/10/29 02:48:38;;;;;;;25.42;14.23;;;7.90;92.80;;;;;;4945687;28;20055;-68
2021/10/29 02:51:04;;;;;;;26.77;13.80;;;7.80;93.10;;;;;;4950776;28;20110;-68
2021/10/29 02:53:30;;;;;;;24.77;14.95;;;7.80;93.20;;;;;;4956371;28;20045;-68
2021/10/29 02:55:57;;;;;;;23.23;14.10;;;7.90;92.70;;;;;;4955545;28;20766;-68
2021/10/29 02:58:26;;;;;;;24.80;12.45;;;7.80;92.30;;;;;;4946657;28;20467;-68
2021/10/29 03:00:52;;;;;;;23.55;13.57;;;7.80;92.20;;;;;;4950080;28;20151;-68
2021/10/29 03:03:18;;;;;;;22.42;12.80;;;7.70;92.30;;;;;;4945933;28;20089;-66
2021/10/29 03:05:44;;;;;;;20.40;12.70;;;7.60;92.40;;;;;;4943245;28;20523;-66
2021/10/29 03:08:10;;;;;;;25.25;13.65;;;7.50;92.50;;;;;;4947261;28;20030;-66
2021/10/29 03:10:35;;;;;;;22.60;13.15;;;7.50;92.60;;;;;;4947409;28;20122;-66
2021/10/29 03:13:01;;;;;;;23.70;12.65;;;7.40;92.60;;;;;;4957804;28;20042;-66
2021/10/29 03:15:27;;;;;;;21.80;12.43;;;7.40;92.80;;;;;;4958373;28;20035;-70
2021/10/29 03:17:53;;;;;;;22.83;13.05;;;7.30;92.80;;;;;;4949351;28;20039;-66
2021/10/29 03:20:19;;;;;;;23.42;13.27;;;7.30;92.90;;;;;;4958206;28;20850;-66
2021/10/29 03:22:45;;;;;;;28.77;13.48;;;7.30;93.00;;;;;;4961174;28;20034;-67
2021/10/29 03:25:11;;;;;;;24.30;13.65;;;7.30;93.30;;;;;;4957011;28;20117;-69
2021/10/29 03:27:37;;;;;;;28.40;13.85;;;7.20;93.20;;;;;;4964746;28;20047;-67
2021/10/29 03:30:05;;;;;;;27.60;14.85;;;7.20;93.30;;;;;;4958839;28;20038;-66
2021/10/29 03:32:30;;;;;;;25.58;14.10;;;7.20;93.20;;;;;;4963973;28;20130;-69
2021/10/29 03:34:57;;;;;;;25.88;14.38;;;7.10;93.10;;;;;;4946680;28;20077;-67
2021/10/29 03:43:25;;;;;;;26.35;13.50;;;7.00;93.70;;;;;;4957406;28;20913;-66
2021/10/29 03:45:29;;;;;;;25.45;13.82;;;7.00;93.90;;;;;;4954167;28;20139;-67
2021/10/29 03:48:00;;;;;;;29.13;14.93;;;7.00;93.90;;;;;;4945892;28;20031;-66
2021/10/29 03:50:32;;;;;;;27.95;14.85;;;6.90;93.90;;;;;;4941875;28;20038;-66
2021/10/29 03:53:12;;;;;;;30.40;14.20;;;6.90;93.70;;;;;;4954712;28;20042;-66
2021/10/29 03:55:42;;;;;;;27.33;14.70;;;6.90;94.00;;;;;;4952545;28;20038;-66
2021/10/29 03:58:08;;;;;;;31.52;15.63;;;6.90;94.20;;;;;;4957452;28;20042;-66
2021/10/29 04:00:34;;;;;;;25.80;14.45;;;6.90;94.10;;;;;;4957846;28;20042;-68
2021/10/29 04:03:03;;;;;;;29.73;16.05;;;6.90;94.00;;;;;;4966430;28;20411;-66
2021/10/29 04:05:30;;;;;;;27.45;15.32;;;6.80;93.80;;;;;;4954542;28;20840;-69
2021/10/29 04:07:56;;;;;;;29.10;15.15;;;6.80;93.80;;;;;;4957114;28;20441;-66
2021/10/29 04:10:27;;;;;;;25.20;14.50;;;6.80;93.80;;;;;;4955804;28;20042;-66
2021/10/29 04:13:02;;;;;;;31.15;15.18;;;6.70;93.70;;;;;;4951022;28;20047;-67
2021/10/29 04:15:28;;;;;;;25.13;13.60;;;6.60;93.70;;;;;;4945408;28;20078;-66
2021/10/29 04:17:55;;;;;;;23.98;14.05;;;6.60;93.70;;;;;;4941743;28;20059;-69
2021/10/29 04:20:21;;;;;;;26.95;14.52;;;6.60;93.90;;;;;;4962914;28;20569;-69
2021/10/29 04:22:48;;;;;;;24.35;14.27;;;6.50;94.10;;;;;;4964806;28;20038;-66
2021/10/29 04:25:14;;;;;;;27.60;15.27;;;6.50;94.20;;;;;;4970650;28;20502;-69
2021/10/29 04:27:49;;;;;;;28.17;14.77;;;6.50;94.10;;;;;;4957224;28;20045;-69
2021/10/29 04:30:20;;;;;;;29.73;14.80;;;6.50;94.10;;;;;;4967566;28;20034;-69
2021/10/29 04:32:46;;;;;;;28.38;15.30;;;6.40;94.60;;;;;;4947563;28;20317;-67
2021/10/29 04:35:12;;;;;;;28.17;14.95;;;6.40;94.20;;;;;;4942957;28;20559;-69
2021/10/29 04:37:40;;;;;;;28.45;15.43;;;6.40;94.10;;;;;;4943912;28;20046;-66
2021/10/29 04:40:07;;;;;;;28.95;15.05;;;6.40;94.10;;;;;;4947815;28;20026;-66
2021/10/29 04:42:33;;;;;;;30.48;14.52;;;6.40;94.10;;;;;;4953739;28;20034;-66
2021/10/29 04:44:59;;;;;;;29.83;14.98;;;6.30;94.10;;;;;;4953471;28;20038;-69
2021/10/29 04:47:25;;;;;;;26.23;14.35;;;6.30;94.20;;;;;;4955236;28;20043;-66
2021/10/29 04:49:50;;;;;;;29.02;15.15;;;6.20;94.20;;;;;;4949923;28;20032;-69
2021/10/29 04:52:16;;;;;;;30.88;15.77;;;6.20;94.30;;;;;;4968742;28;20067;-66
2021/10/29 04:54:42;;;;;;;27.02;15.52;;;6.20;94.30;;;;;;4958840;28;20438;-66
2021/10/29 04:57:07;;;;;;;28.40;15.05;;;6.20;94.40;;;;;;4956411;28;20169;-66
2021/10/29 04:59:35;;;;;;;27.38;15.68;;;6.20;94.40;;;;;;4950769;28;20022;-66
2021/10/29 05:02:00;;;;;;;29.80;13.98;;;6.20;94.50;;;;;;4947537;28;20851;-66
2021/10/29 05:04:26;;;;;;;27.63;14.65;;;6.20;94.60;;;;;;4957396;28;20047;-66
2021/10/29 05:06:52;;;;;;;26.95;15.48;;;6.10;94.70;;;;;;4953084;28;20121;-66
2021/10/29 05:09:17;;;;;;;27.85;15.40;;;6.20;94.60;;;;;;4949919;28;20035;-66
2021/10/29 05:11:43;;;;;;;29.75;14.27;;;6.10;94.40;;;;;;4945356;28;20809;-69
2021/10/29 05:14:09;;;;;;;27.42;15.02;;;6.10;94.60;;;;;;4951558;28;20038;-67
2021/10/29 05:16:34;;;;;;;29.67;14.57;;;6.10;94.60;;;;;;4965736;28;20093;-66
2021/10/29 05:19:00;;;;;;;29.05;15.70;;;6.10;94.60;;;;;;4954074;28;20558;-66
2021/10/29 05:21:26;;;;;;;26.70;14.38;;;6.10;94.60;;;;;;4945511;28;20590;-68
2021/10/29 05:23:52;;;;;;;27.02;14.48;;;6.10;94.50;;;;;;4955654;28;20032;-66
2021/10/29 05:26:18;;;;;;;32.05;16.27;;;6.10;94.60;;;;;;4959999;28;20558;-68
2021/10/29 05:28:43;;;;;;;29.38;15.73;;;6.10;94.80;;;;;;4960996;28;20089;-68
2021/10/29 05:31:09;;;;;;;30.27;15.13;;;6.10;94.80;;;;;;4958134;28;20042;-67
2021/10/29 05:33:35;;;;;;;30.55;15.55;;;6.10;95.00;;;;;;4954013;28;20046;-68
2021/10/29 05:36:01;;;;;;;30.40;16.33;;;6.10;94.80;;;;;;4951629;28;20042;-68
2021/10/29 05:38:27;;;;;;;32.40;15.82;;;6.10;95.20;;;;;;4952200;28;20035;-67
2021/10/29 05:40:54;;;;;;;27.27;14.38;;;6.20;95.20;;;;;;4946296;28;20039;-69
2021/10/29 05:43:20;;;;;;;33.40;17.00;;;6.20;95.10;;;;;;4948822;28;20183;-69
2021/10/29 05:45:46;;;;;;;32.35;16.15;;;6.20;95.00;;;;;;4953164;28;20576;-65
2021/10/29 05:48:11;;;;;;;29.38;16.52;;;6.20;95.00;;;;;;4959667;28;20031;-68
2021/10/29 05:50:46;;;;;;;34.90;17.30;;;6.20;95.10;;;;;;4953489;28;20039;-66
2021/10/29 05:53:18;;;;;;;33.22;16.85;;;6.30;95.20;;;;;;4955035;28;20423;-67
2021/10/29 05:55:44;;;;;;;30.05;15.70;;;6.30;95.10;;;;;;4957399;28;20035;-66
2021/10/29 05:58:10;;;;;;;31.33;14.68;;;6.30;95.00;;;;;;4960365;28;20081;-67
2021/10/29 06:00:36;;;;;;;30.67;16.40;;;6.30;94.70;;;;;;4955909;28;20101;-69
2021/10/29 06:03:05;;;;;;;28.88;15.68;;;6.40;94.60;;;;;;4954843;28;20043;-67
2021/10/29 06:05:32;;;;;;;30.15;16.33;;;6.40;94.50;;;;;;4949018;28;20071;-66
2021/10/29 06:07:58;;;;;;;27.67;14.75;;;6.40;94.30;;;;;;4947081;28;20039;-69
2021/10/29 06:10:24;;;;;;;28.38;14.98;;;6.40;94.30;;;;;;4967823;28;20571;-66
2021/10/29 06:12:50;;;;;;;31.65;17.80;;;6.40;94.50;;;;;;4956226;28;20031;-68
2021/10/29 06:15:17;;;;;;;29.95;16.48;;;6.40;94.30;;;;;;4948471;28;20039;-69
2021/10/29 06:17:44;;;;;;;29.10;15.52;;;6.40;94.30;;;;;;4970202;28;20086;-67
2021/10/29 06:20:11;;;;;;;31.02;17.17;;;6.40;94.30;;;;;;4968660;28;20499;-70
2021/10/29 06:22:39;;;;;;;27.10;15.45;;;6.40;94.30;;;;;;4951189;28;20031;-69
2021/10/29 06:25:20;;;;;;;28.27;15.32;;;6.50;94.40;;;;;;4945730;28;20043;-68
2021/10/29 06:30:37;;;;;;;28.90;14.87;;;6.50;94.30;;;;;;4951725;28;20046;-67
2021/10/29 06:33:03;;;;;;;26.20;15.48;;;6.60;94.00;;;;;;4954012;28;20278;-69
2021/10/29 06:35:29;;;;;;;28.55;15.02;;;6.60;93.90;;;;;;4958630;28;20039;-68
2021/10/29 06:37:57;;;;;;;30.42;16.02;;;6.60;93.80;;;;;;4946240;28;20031;-64
2021/10/29 06:40:24;;;;;;;32.08;16.23;;;6.60;94.00;;;;;;4952580;28;20125;-66
2021/10/29 06:42:53;;;;;;;31.48;16.48;;;6.70;93.80;;;;;;4950076;28;20035;-65
2021/10/29 06:48:14;;;;;;;37.17;15.90;;;6.70;93.60;;;;;;4954864;28;20034;-65
2021/10/29 06:52:05;;;;;;;30.10;15.52;;;6.80;93.60;;;;;;4954622;28;20078;-66
2021/10/29 07:01:51;;;;;;;28.50;14.55;;;6.90;93.80;;;;;;4950941;28;20039;-69
2021/10/29 07:45:26;;;;;;;25.58;14.57;;;9.00;90.20;;;;;;4961029;28;20119;-65
2021/10/29 07:47:52;;;;;;;30.20;15.40;;;9.20;89.70;;;;;;4947223;28;20058;-65
2021/10/29 07:50:20;;;;;;;30.83;15.30;;;9.30;89.50;;;;;;4944446;28;20091;-65
2021/10/29 07:52:47;;;;;;;28.90;15.48;;;9.30;89.60;;;;;;4950676;28;20030;-65
2021/10/29 07:55:15;;;;;;;29.15;14.75;;;9.40;89.20;;;;;;4954914;28;20035;-63
2021/10/29 07:57:41;;;;;;;25.23;14.32;;;9.40;89.00;;;;;;4956438;28;20075;-66
2021/10/29 08:00:09;;;;;;;26.33;14.77;;;9.50;89.00;;;;;;4953871;28;20035;-67
2021/10/29 08:02:35;;;;;;;25.60;14.70;;;9.50;88.30;;;;;;4948384;28;20031;-66
2021/10/29 08:05:01;;;;;;;24.73;14.45;;;9.60;88.30;;;;;;4951122;28;20038;-65
2021/10/29 08:07:29;;;;;;;21.10;12.88;;;9.60;88.10;;;;;;4943601;28;20046;-63
2021/10/29 08:09:55;;;;;;;26.40;14.20;;;9.70;87.10;;;;;;4948983;28;20039;-63
2021/10/29 08:12:21;;;;;;;28.25;14.70;;;9.80;87.00;;;;;;4953707;28;20403;-63
2021/10/29 08:14:48;;;;;;;24.27;13.68;;;9.90;86.90;;;;;;4951397;28;20042;-63
2021/10/29 08:17:16;;;;;;;22.33;12.50;;;10.00;87.00;;;;;;4952432;28;21101;-64
2021/10/29 08:19:42;;;;;;;23.98;14.27;;;10.00;86.40;;;;;;4960616;28;20085;-66
2021/10/29 08:22:08;;;;;;;27.90;14.32;;;10.10;84.60;;;;;;4950785;28;20431;-66
2021/10/29 08:24:35;;;;;;;22.92;13.63;;;10.10;85.40;;;;;;4952596;28;20059;-67
2021/10/29 08:27:02;;;;;;;21.30;13.25;;;10.20;84.50;;;;;;4966477;28;20046;-64
2021/10/29 08:29:28;;;;;;;26.38;13.88;;;10.30;84.60;;;;;;4949745;28;20057;-64
2021/10/29 08:31:54;;;;;;;23.67;12.95;;;10.40;85.40;;;;;;4955671;28;20578;-65
2021/10/29 08:34:24;;;;;;;22.63;13.73;;;10.50;84.20;;;;;;4947612;28;20395;-65
2021/10/29 08:36:55;;;;;;;20.63;12.88;;;10.70;82.60;;;;;;4949003;28;20054;-65
2021/10/29 08:39:21;;;;;;;22.23;12.98;;;10.70;82.20;;;;;;4953546;28;20122;-65
2021/10/29 08:41:47;;;;;;;23.38;12.90;;;10.80;82.20;;;;;;4948252;28;20093;-64
2021/10/29 08:44:14;;;;;;;21.73;13.20;;;10.90;82.60;;;;;;4941482;28;20031;-67
2021/10/29 08:46:44;;;;;;;21.45;12.48;;;11.30;81.00;;;;;;4965716;28;20600;-65
2021/10/29 08:49:11;;;;;;;18.27;11.40;;;12.20;78.30;;;;;;4954112;28;20039;-66
2021/10/29 08:51:38;;;;;;;18.17;11.45;;;13.00;76.00;;;;;;4954727;28;20038;-67
2021/10/29 08:54:05;;;;;;;17.55;11.10;;;13.40;73.60;;;;;;4951347;28;20035;-67
2021/10/29 08:56:32;;;;;;;20.88;12.07;;;13.50;72.10;;;;;;4954402;28;20673;-66
2021/10/29 08:59:21;;;;;;;21.27;12.38;;;13.30;71.60;;;;;;4951719;28;20101;-65
2021/10/29 09:01:57;;;;;;;18.13;11.23;;;13.30;71.50;;;;;;4961201;28;20043;-65
2021/10/29 09:32:23;;;;;;;12.77;9.70;;;33.10;28.50;;;;;;4955795;28;20529;-68
2021/10/29 09:34:56;;;;;;;11.70;9.32;;;32.80;28.50;;;;;;4960570;28;20057;-68
2021/10/29 09:37:22;;;;;;;11.55;9.55;;;31.50;29.00;;;;;;4947158;28;20043;-68
2021/10/29 09:39:54;;;;;;;12.30;9.18;;;29.00;31.90;;;;;;4966624;28;20515;-68
2021/10/29 09:42:35;;;;;;;12.35;9.50;;;26.30;34.80;;;;;;4954024;28;20053;-68
2021/10/29 09:45:15;;;;;;;14.57;10.05;;;23.60;39.20;;;;;;4949717;28;20039;-67
2021/10/29 09:47:47;;;;;;;14.60;9.93;;;21.40;43.30;;;;;;4958459;28;20117;-66
2021/10/29 09:50:23;;;;;;;13.50;9.32;;;19.40;48.40;;;;;;4951580;28;20035;-67
2021/10/29 09:53:03;;;;;;;11.15;8.98;;;18.10;51.70;;;;;;4962196;28;20054;-68
2021/10/29 09:58:16;;;;;;;12.50;8.77;;;16.60;56.60;;;;;;4956206;28;20137;-68
2021/10/29 10:00:43;;;;;;;13.93;8.93;;;16.20;56.50;;;;;;4959188;28;20050;-68
2021/10/29 10:03:09;;;;;;;11.25;8.13;;;15.80;58.50;;;;;;4957037;28;20102;-68
2021/10/29 10:05:38;;;;;;;12.40;8.45;;;15.50;59.60;;;;;;4955288;28;20538;-68
2021/10/29 10:08:05;;;;;;;11.18;7.95;;;15.40;59.50;;;;;;4967598;28;20038;-68
2021/10/29 10:10:33;;;;;;;12.82;8.05;;;15.10;60.60;;;;;;4953741;28;20322;-68
2021/10/29 10:13:00;;;;;;;15.25;8.32;;;14.90;62.20;;;;;;4952923;28;20039;-68
2021/10/29 10:15:27;;;;;;;13.68;8.50;;;14.80;62.00;;;;;;4955370;28;20035;-67
2021/10/29 10:17:53;;;;;;;12.82;7.75;;;14.80;63.90;;;;;;4951320;28;20750;-68
2021/10/29 10:20:20;;;;;;;11.38;7.75;;;14.70;62.70;;;;;;4967816;28;20043;-68
2021/10/29 10:22:48;;;;;;;11.10;7.40;;;14.70;64.40;;;;;;4962317;28;20027;-67
2021/10/29 10:25:37;;;;;;;12.05;7.65;;;14.80;64.30;;;;;;4957938;28;20058;-67
2021/10/29 10:43:06;;;;;;;9.00;6.25;;;14.80;64.20;;;;;;4970849;28;20031;-67
2021/10/29 10:45:17;;;;;;;13.68;8.23;;;14.80;64.60;;;;;;4951952;28;20081;-67
2021/10/29 10:47:50;;;;;;;11.52;7.55;;;14.90;64.90;;;;;;4953312;28;20110;-67
2021/10/29 10:50:21;;;;;;;11.73;7.35;;;15.00;64.60;;;;;;4948601;28;20580;-67
2021/10/29 10:53:05;;;;;;;9.75;6.97;;;15.00;65.30;;;;;;4957770;28;20038;-67
2021/10/29 10:55:46;;;;;;;10.85;7.22;;;15.10;64.40;;;;;;4965650;28;20035;-66
2021/10/29 10:59:02;;;;;;;12.80;6.55;;;15.10;63.60;;;;;;4955402;28;20047;-67
2021/10/29 11:12:41;;;;;;;11.90;6.72;;;15.20;64.40;;;;;;4961226;28;20054;-66
2021/10/29 11:15:25;;;;;;;10.98;6.35;;;15.20;63.90;;;;;;4951695;28;20038;-66
2021/10/29 11:17:59;;;;;;;10.30;6.60;;;15.20;64.90;;;;;;4956035;28;20129;-66
2021/10/29 11:20:41;;;;;;;10.57;6.80;;;15.20;65.10;;;;;;4943771;28;20035;-66
2021/10/29 11:23:17;;;;;;;9.68;6.97;;;15.20;65.20;;;;;;4954920;28;20047;-66
2021/10/29 11:25:48;;;;;;;8.57;6.57;;;15.30;65.70;;;;;;4971637;28;20049;-66
2021/10/29 11:28:16;;;;;;;10.85;6.80;;;15.30;65.50;;;;;;4942516;28;20035;-66
2021/10/29 11:30:43;;;;;;;9.73;6.68;;;15.30;65.00;;;;;;4952508;28;20027;-66
2021/10/29 11:33:09;;;;;;;10.20;6.50;;;15.40;64.50;;;;;;4948402;28;20058;-66
2021/10/29 11:35:36;;;;;;;10.93;6.82;;;15.40;64.70;;;;;;4949005;28;20460;-66
2021/10/29 11:38:04;;;;;;;10.90;6.97;;;15.40;64.20;;;;;;4953138;28;20039;-66
2021/10/29 11:40:31;;;;;;;11.82;6.45;;;15.40;64.70;;;;;;4952243;28;20039;-67
2021/10/29 11:42:57;;;;;;;11.48;7.07;;;15.50;63.60;;;;;;4947048;28;20110;-67
2021/10/29 11:45:35;;;;;;;10.35;6.18;;;15.50;63.70;;;;;;4941892;28;20086;-66
2021/10/29 11:48:03;;;;;;;11.27;7.03;;;15.50;63.30;;;;;;4952168;28;20031;-66
2021/10/29 11:50:29;;;;;;;10.25;6.28;;;15.50;62.90;;;;;;4951635;28;20034;-66
2021/10/29 11:52:59;;;;;;;10.50;6.63;;;15.50;63.60;;;;;;4954352;28;20129;-66
2021/10/29 11:55:38;;;;;;;10.20;6.85;;;15.50;63.70;;;;;;4949314;28;20679;-66
2021/10/29 12:01:12;;;;;;;10.88;6.72;;;15.60;63.80;;;;;;4957278;28;20043;-66
2021/10/29 12:09:30;;;;;;;12.52;7.47;;;15.80;62.10;;;;;;4965052;28;19918;-66
2021/10/29 12:12:05;;;;;;;12.50;6.57;;;15.80;62.60;;;;;;4941667;28;20797;-66
2021/10/29 12:14:33;;;;;;;9.98;5.85;;;15.80;62.80;;;;;;4946824;28;20411;-66
2021/10/29 12:17:14;;;;;;;8.65;5.53;;;15.80;62.60;;;;;;4953050;28;20597;-65
2021/10/29 12:19:42;;;;;;;9.45;6.65;;;15.90;63.10;;;;;;4949358;28;20796;-66
2021/10/29 12:22:18;;;;;;;8.25;5.50;;;15.90;63.40;;;;;;4940524;28;20039;-66
2021/10/29 12:24:52;;;;;;;10.45;5.80;;;16.00;62.60;;;;;;4967938;28;20109;-67
2021/10/29 12:27:38;;;;;;;11.20;6.80;;;16.00;62.60;;;;;;4948149;28;20035;-67
2021/10/29 12:33:26;;;;;;;10.02;6.50;;;16.00;61.20;;;;;;4944472;28;20061;-66
2021/10/29 13:01:36;;;;;;;11.70;7.03;;;16.40;61.50;;;;;;4946857;28;20491;-67
2021/10/29 13:04:08;;;;;;;11.88;8.02;;;16.40;62.10;;;;;;4954352;28;20027;-67
2021/10/29 13:06:36;;;;;;;13.18;8.25;;;16.30;61.90;;;;;;4972189;28;20150;-66
2021/10/29 13:09:22;;;;;;;14.40;8.20;;;16.40;61.80;;;;;;4957792;28;20122;-67
2021/10/29 13:11:59;;;;;;;12.77;7.67;;;16.30;61.60;;;;;;4970632;28;20090;-67
2021/10/29 13:16:54;;;;;;;11.30;7.95;;;16.30;61.00;;;;;;4960145;28;20121;-66
2021/10/29 13:36:13;;;;;;;11.18;7.38;;;16.30;60.80;;;;;;4951999;28;20470;-67
2021/10/29 14:29:43;;;;;;;14.43;10.18;;;15.60;64.50;;;;;;4952893;28;20046;-67
2021/10/29 14:32:17;;;;;;;12.75;8.55;;;15.60;64.70;;;;;;4947235;28;20035;-67
2021/10/29 14:34:50;;;;;;;12.30;8.70;;;15.50;64.90;;;;;;4951798;28;20681;-67
2021/10/29 14:37:25;;;;;;;10.18;7.90;;;15.40;65.20;;;;;;4954553;28;20803;-67
2021/10/29 14:40:14;;;;;;;12.30;8.20;;;15.40;65.50;;;;;;4959163;28;20039;-66
2021/10/29 14:42:51;;;;;;;14.30;9.38;;;15.30;65.90;;;;;;4958969;28;20535;-66
2021/10/29 14:45:24;;;;;;;15.73;9.82;;;15.20;65.90;;;;;;4957942;28;20582;-67
2021/10/29 15:03:45;;;;;;;19.88;11.43;;;14.70;68.30;;;;;;4950820;28;20038;-67
2021/10/29 15:25:26;;;;;;;18.27;13.23;;;13.70;72.30;;;;;;4947445;28;20035;-69
2021/10/29 15:46:41;;;;;;;23.90;14.07;;;12.60;77.20;;;;;;4953932;28;20058;-69
2021/10/29 15:49:21;;;;;;;22.50;14.80;;;12.50;78.00;;;;;;4958397;28;20035;-70
2021/10/29 15:51:54;;;;;;;22.30;15.48;;;12.40;78.70;;;;;;4949962;28;20042;-70
2021/10/29 15:54:21;;;;;;;26.15;17.65;;;12.20;79.10;;;;;;4954641;28;20094;-68
2021/10/29 15:56:52;;;;;;;41.83;25.38;;;12.10;79.60;;;;;;4951994;28;20039;-68
2021/10/29 16:01:58;;;;;;;66.75;35.47;;;11.90;80.50;;;;;;4946953;28;20043;-68
2021/10/29 16:18:06;;;;;;;35.08;21.33;;;11.50;83.10;;;;;;4946968;28;20086;-65
2021/10/29 16:20:32;;;;;;;36.65;21.92;;;11.40;83.30;;;;;;4955118;28;20068;-69
2021/10/29 16:23:01;;;;;;;31.05;19.25;;;11.30;83.60;;;;;;4951128;28;20034;-69
2021/10/29 16:25:35;;;;;;;32.92;21.13;;;11.30;83.90;;;;;;4966932;28;20059;-68
2021/10/29 16:28:09;;;;;;;33.17;20.30;;;11.20;84.20;;;;;;4953127;28;20114;-68
2021/10/29 16:30:35;;;;;;;38.53;23.48;;;11.20;84.40;;;;;;4957393;28;20054;-73
2021/10/29 16:35:32;;;;;;;36.25;23.13;;;11.10;85.00;;;;;;4965871;28;20039;-62
2021/10/29 16:37:58;;;;;;;34.95;22.38;;;11.00;85.20;;;;;;4952975;28;20554;-68
2021/10/29 16:40:24;;;;;;;31.40;19.90;;;11.00;85.50;;;;;;4944843;28;20039;-68
2021/10/29 16:42:50;;;;;;;28.67;20.27;;;10.90;85.80;;;;;;4952406;28;20119;-64
2021/10/29 16:45:22;;;;;;;32.38;20.08;;;10.90;86.10;;;;;;4952477;28;20039;-63
2021/10/29 16:47:48;;;;;;;27.40;17.58;;;10.80;86.40;;;;;;4956153;28;20070;-67
2021/10/29 16:50:15;;;;;;;27.65;18.10;;;10.80;86.50;;;;;;4952855;28;20146;-63
2021/10/29 16:52:41;;;;;;;25.52;17.80;;;10.80;86.70;;;;;;4944726;28;20043;-66
2021/10/29 16:55:09;;;;;;;28.77;18.98;;;10.80;87.00;;;;;;4942565;28;20046;-61
2021/10/29 16:57:35;;;;;;;34.55;20.88;;;10.70;87.20;;;;;;4938584;28;20035;-64
2021/10/29 17:00:03;;;;;;;33.28;21.00;;;10.70;87.30;;;;;;4958880;28;20035;-66
2021/10/29 17:02:29;;;;;;;27.13;19.13;;;10.70;87.10;;;;;;4948317;28;20077;-63
2021/10/29 17:04:55;;;;;;;29.45;18.70;;;10.60;87.30;;;;;;4940773;28;20031;-66
2021/10/29 17:07:21;;;;;;;33.72;19.48;;;10.60;87.50;;;;;;4947986;28;20034;-67
2021/10/29 17:09:50;;;;;;;32.55;21.55;;;10.60;87.90;;;;;;4953388;28;20444;-63
2021/10/29 17:12:17;;;;;;;45.15;26.92;;;10.50;88.10;;;;;;4946472;28;20046;-66
2021/10/29 17:14:43;;;;;;;41.42;26.83;;;10.40;88.30;;;;;;4941642;28;20115;-64
2021/10/29 17:17:08;;;;;;;42.38;26.90;;;10.40;88.60;;;;;;4946164;28;20035;-67
2021/10/29 17:19:34;;;;;;;40.25;25.17;;;10.40;88.70;;;;;;4957862;28;20054;-66
2021/10/29 17:22:00;;;;;;;35.33;22.95;;;10.40;88.90;;;;;;4954688;28;20035;-66
2021/10/29 17:24:27;;;;;;;39.50;22.83;;;10.30;89.30;;;;;;4959621;28;20700;-62
2021/10/29 17:26:53;;;;;;;31.25;20.85;;;10.30;89.50;;;;;;4954675;28;20035;-62
2021/10/29 17:29:21;;;;;;;33.97;20.58;;;10.20;90.20;;;;;;4954356;28;20050;-67
2021/10/29 17:31:47;;;;;;;37.03;21.60;;;10.20;90.10;;;;;;4946670;28;20027;-68
2021/10/29 17:34:13;;;;;;;33.40;20.63;;;10.20;90.10;;;;;;4969787;28;20049;-63
2021/10/29 17:36:38;;;;;;;26.67;18.48;;;10.20;90.00;;;;;;4955186;28;20039;-68
2021/10/29 17:39:05;;;;;;;30.48;19.42;;;10.20;90.10;;;;;;4948834;28;20467;-66